sensor_id;sensor_type;location;lat;lon;timestamp;pressure;altitude;pressure_sealevel;temperature;humidity
44148;BME280;29810;55.848;37.368;2023-03-16T00:00:28;98669.47;;;4.15;71.85
44148;BME280;29810;55.848;37.368;2023-03-16T00:03:32;98664.41;;;4.11;72.34
44148;BME280;29810;55.848;37.368;2023-03-16T00:06:33;98654.22;;;4.05;72.58
44148;BME280;29810;55.848;37.368;2023-03-16T00:09:37;98651.44;;;4.14;72.99
44148;BME280;29810;55.848;37.368;2023-03-16T00:12:41;98643.63;;;4.19;72.82
44148;BME280;29810;55.848;37.368;2023-03-16T00:15:58;98655.53;;;4.24;73.19
44148;BME280;29810;55.848;37.368;2023-03-16T00:19:01;98638.31;;;4.26;73.55
44148;BME280;29810;55.848;37.368;2023-03-16T00:22:03;98642.56;;;4.29;72.67
44148;BME280;29810;55.848;37.368;2023-03-16T00:25:05;98618.06;;;4.08;72.76
44148;BME280;29810;55.848;37.368;2023-03-16T00:28:07;98634.97;;;4.21;72.76
44148;BME280;29810;55.848;37.368;2023-03-16T00:31:10;98633.19;;;4.23;72.76
44148;BME280;29810;55.848;37.368;2023-03-16T00:34:13;98632.84;;;4.42;73.07
44148;BME280;29810;55.848;37.368;2023-03-16T00:37:16;98631.06;;;4.44;72.34
44148;BME280;29810;55.848;37.368;2023-03-16T00:40:18;98633.47;;;4.52;72.28
44148;BME280;29810;55.848;37.368;2023-03-16T00:43:19;98629.09;;;4.55;72.16
44148;BME280;29810;55.848;37.368;2023-03-16T00:46:21;98627.19;;;4.63;71.84
44148;BME280;29810;55.848;37.368;2023-03-16T00:49:26;98630.53;;;4.69;72.13
44148;BME280;29810;55.848;37.368;2023-03-16T00:52:28;98639.94;;;4.71;71.94
44148;BME280;29810;55.848;37.368;2023-03-16T00:55:32;98643.31;;;4.75;71.62
44148;BME280;29810;55.848;37.368;2023-03-16T00:58:36;98639.03;;;4.74;71.34
44148;BME280;29810;55.848;37.368;2023-03-16T01:01:38;98627.16;;;4.67;71.19
44148;BME280;29810;55.848;37.368;2023-03-16T01:04:40;98640.78;;;4.72;71.15
44148;BME280;29810;55.848;37.368;2023-03-16T01:07:42;98634.72;;;4.73;71.33
44148;BME280;29810;55.848;37.368;2023-03-16T01:10:45;98630.34;;;4.76;71.23
44148;BME280;29810;55.848;37.368;2023-03-16T01:13:47;98635.44;;;4.81;71.25
44148;BME280;29810;55.848;37.368;2023-03-16T01:16:50;98629.47;;;4.77;71.10
44148;BME280;29810;55.848;37.368;2023-03-16T01:19:52;98633.06;;;4.70;71.16
44148;BME280;29810;55.848;37.368;2023-03-16T01:22:54;98640.97;;;4.62;71.65
44148;BME280;29810;55.848;37.368;2023-03-16T01:25:56;98636.69;;;4.63;71.69
44148;BME280;29810;55.848;37.368;2023-03-16T01:28:59;98643.59;;;4.61;71.72
44148;BME280;29810;55.848;37.368;2023-03-16T01:32:03;98604.41;;;4.43;71.75
44148;BME280;29810;55.848;37.368;2023-03-16T01:35:06;98640.06;;;4.67;71.92
44148;BME280;29810;55.848;37.368;2023-03-16T01:38:08;98645.09;;;4.71;72.12
44148;BME280;29810;55.848;37.368;2023-03-16T01:41:10;98640.84;;;4.69;71.93
44148;BME280;29810;55.848;37.368;2023-03-16T01:44:17;98625.72;;;4.52;72.15
44148;BME280;29810;55.848;37.368;2023-03-16T01:47:20;98642.81;;;4.59;72.53
44148;BME280;29810;55.848;37.368;2023-03-16T01:50:23;98635.25;;;4.50;72.60
44148;BME280;29810;55.848;37.368;2023-03-16T01:53:25;98649.69;;;4.58;72.96
44148;BME280;29810;55.848;37.368;2023-03-16T01:56:37;98647.88;;;4.62;73.13
44148;BME280;29810;55.848;37.368;2023-03-16T02:02:53;98638.72;;;4.48;73.64
44148;BME280;29810;55.848;37.368;2023-03-16T02:06:17;98650.63;;;4.54;74.29
44148;BME280;29810;55.848;37.368;2023-03-16T02:09:20;98653.13;;;4.57;74.72
44148;BME280;29810;55.848;37.368;2023-03-16T02:12:22;98649.84;;;4.51;74.05
44148;BME280;29810;55.848;37.368;2023-03-16T02:15:25;98644.91;;;4.40;74.38
44148;BME280;29810;55.848;37.368;2023-03-16T02:18:28;98652.66;;;4.40;74.59
44148;BME280;29810;55.848;37.368;2023-03-16T02:21:40;98638.13;;;4.36;74.73
44148;BME280;29810;55.848;37.368;2023-03-16T02:24:46;98644.78;;;4.46;75.37
44148;BME280;29810;55.848;37.368;2023-03-16T02:27:59;98659.41;;;4.45;74.78
44148;BME280;29810;55.848;37.368;2023-03-16T02:31:06;98642.41;;;4.35;75.40
44148;BME280;29810;55.848;37.368;2023-03-16T02:34:08;98657.75;;;4.44;74.87
44148;BME280;29810;55.848;37.368;2023-03-16T02:37:10;98658.56;;;4.45;75.06
44148;BME280;29810;55.848;37.368;2023-03-16T02:40:25;98647.31;;;4.49;75.04
44148;BME280;29810;55.848;37.368;2023-03-16T02:43:30;98651.59;;;4.50;75.29
44148;BME280;29810;55.848;37.368;2023-03-16T02:46:36;98639.72;;;4.41;75.38
44148;BME280;29810;55.848;37.368;2023-03-16T02:49:43;98657.59;;;4.51;75.28
44148;BME280;29810;55.848;37.368;2023-03-16T02:52:45;98652.25;;;4.58;75.37
44148;BME280;29810;55.848;37.368;2023-03-16T02:55:50;98646.50;;;4.45;75.16
44148;BME280;29810;55.848;37.368;2023-03-16T02:58:52;98633.84;;;4.35;75.35
44148;BME280;29810;55.848;37.368;2023-03-16T03:01:54;98635.50;;;4.37;75.59
44148;BME280;29810;55.848;37.368;2023-03-16T03:04:55;98638.13;;;4.36;75.79
44148;BME280;29810;55.848;37.368;2023-03-16T03:07:57;98647.53;;;4.38;75.98
44148;BME280;29810;55.848;37.368;2023-03-16T03:11:00;98650.06;;;4.40;75.97
44148;BME280;29810;55.848;37.368;2023-03-16T03:14:02;98641.38;;;4.44;76.08
44148;BME280;29810;55.848;37.368;2023-03-16T03:17:08;98637.84;;;4.48;75.96
44148;BME280;29810;55.848;37.368;2023-03-16T03:20:11;98641.22;;;4.52;76.36
44148;BME280;29810;55.848;37.368;2023-03-16T03:23:17;98649.84;;;4.52;75.97
44148;BME280;29810;55.848;37.368;2023-03-16T03:26:19;98638.63;;;4.52;76.01
44148;BME280;29810;55.848;37.368;2023-03-16T03:29:22;98631.78;;;4.51;75.88
44148;BME280;29810;55.848;37.368;2023-03-16T03:32:24;98645.44;;;4.56;75.81
44148;BME280;29810;55.848;37.368;2023-03-16T03:35:53;98631.78;;;4.51;75.93
44148;BME280;29810;55.848;37.368;2023-03-16T03:38:54;98630.78;;;4.58;76.74
44148;BME280;29810;55.848;37.368;2023-03-16T03:41:55;98625.81;;;4.48;76.33
44148;BME280;29810;55.848;37.368;2023-03-16T03:44:57;98610.28;;;4.50;76.34
44148;BME280;29810;55.848;37.368;2023-03-16T03:48:00;98603.38;;;4.52;76.37
44148;BME280;29810;55.848;37.368;2023-03-16T03:51:02;98588.84;;;4.46;76.44
44148;BME280;29810;55.848;37.368;2023-03-16T03:54:07;98599.03;;;4.53;76.58
44148;BME280;29810;55.848;37.368;2023-03-16T03:57:09;98608.44;;;4.55;76.51
44148;BME280;29810;55.848;37.368;2023-03-16T04:00:12;98614.50;;;4.54;76.42
44148;BME280;29810;55.848;37.368;2023-03-16T04:03:13;98617.91;;;4.56;76.71
44148;BME280;29810;55.848;37.368;2023-03-16T04:06:17;98614.50;;;4.54;76.77
44148;BME280;29810;55.848;37.368;2023-03-16T04:09:19;98614.53;;;4.53;76.55
44148;BME280;29810;55.848;37.368;2023-03-16T04:12:21;98619.69;;;4.53;76.66
44148;BME280;29810;55.848;37.368;2023-03-16T04:15:24;98623.19;;;4.50;76.75
44148;BME280;29810;55.848;37.368;2023-03-16T04:18:27;98612.94;;;4.47;76.76
44148;BME280;29810;55.848;37.368;2023-03-16T04:21:29;98622.44;;;4.45;76.97
44148;BME280;29810;55.848;37.368;2023-03-16T04:24:32;98612.91;;;4.48;77.12
44148;BME280;29810;55.848;37.368;2023-03-16T04:27:34;98612.91;;;4.48;77.14
44148;BME280;29810;55.848;37.368;2023-03-16T04:30:37;98609.38;;;4.53;77.43
44148;BME280;29810;55.848;37.368;2023-03-16T04:33:40;98606.81;;;4.51;77.25
44148;BME280;29810;55.848;37.368;2023-03-16T04:36:42;98624.78;;;4.56;77.12
44148;BME280;29810;55.848;37.368;2023-03-16T04:39:44;98627.28;;;4.60;77.03
44148;BME280;29810;55.848;37.368;2023-03-16T04:42:47;98625.66;;;4.56;77.30
44148;BME280;29810;55.848;37.368;2023-03-16T04:45:49;98624.69;;;4.60;77.39
44148;BME280;29810;55.848;37.368;2023-03-16T04:48:54;98619.56;;;4.59;77.05
44148;BME280;29810;55.848;37.368;2023-03-16T04:51:58;98639.34;;;4.58;76.98
44148;BME280;29810;55.848;37.368;2023-03-16T04:55:01;98644.50;;;4.58;77.07
44148;BME280;29810;55.848;37.368;2023-03-16T04:58:04;98642.75;;;4.60;77.35
44148;BME280;29810;55.848;37.368;2023-03-16T05:01:06;98654.81;;;4.60;77.27
44148;BME280;29810;55.848;37.368;2023-03-16T05:04:09;98653.84;;;4.66;77.59
44148;BME280;29810;55.848;37.368;2023-03-16T05:07:11;98652.13;;;4.64;77.61
44148;BME280;29810;55.848;37.368;2023-03-16T05:10:15;98657.19;;;4.71;77.42
44148;BME280;29810;55.848;37.368;2023-03-16T05:13:19;98654.59;;;4.71;77.65
44148;BME280;29810;55.848;37.368;2023-03-16T05:16:22;98661.50;;;4.69;77.36
44148;BME280;29810;55.848;37.368;2023-03-16T05:19:24;98661.47;;;4.70;77.52
44148;BME280;29810;55.848;37.368;2023-03-16T05:22:26;98657.94;;;4.76;77.28
44148;BME280;29810;55.848;37.368;2023-03-16T05:25:30;98663.81;;;4.83;77.29
44148;BME280;29810;55.848;37.368;2023-03-16T05:28:32;98662.81;;;4.88;77.12
44148;BME280;29810;55.848;37.368;2023-03-16T05:31:35;98662.88;;;4.85;77.00
44148;BME280;29810;55.848;37.368;2023-03-16T05:34:39;98667.97;;;4.88;76.86
44148;BME280;29810;55.848;37.368;2023-03-16T05:37:45;98672.22;;;4.91;77.02
44148;BME280;29810;55.848;37.368;2023-03-16T05:40:47;98673.94;;;4.92;76.92
44148;BME280;29810;55.848;37.368;2023-03-16T05:43:55;98645.09;;;4.71;76.89
44148;BME280;29810;55.848;37.368;2023-03-16T05:46:57;98670.69;;;4.84;77.01
44148;BME280;29810;55.848;37.368;2023-03-16T05:49:59;98668.97;;;4.83;77.17
44148;BME280;29810;55.848;37.368;2023-03-16T05:53:02;98662.00;;;4.85;77.17
44148;BME280;29810;55.848;37.368;2023-03-16T05:56:05;98677.56;;;4.83;77.21
44148;BME280;29810;55.848;37.368;2023-03-16T05:59:07;98676.72;;;4.83;77.24
44148;BME280;29810;55.848;37.368;2023-03-16T06:02:10;98668.19;;;4.79;77.24
44148;BME280;29810;55.848;37.368;2023-03-16T06:05:13;98670.72;;;4.80;77.37
44148;BME280;29810;55.848;37.368;2023-03-16T06:08:15;98675.87;;;4.80;77.32
44148;BME280;29810;55.848;37.368;2023-03-16T06:11:18;98678.44;;;4.84;77.26
44148;BME280;29810;55.848;37.368;2023-03-16T06:14:20;98679.22;;;4.86;77.38
44148;BME280;29810;55.848;37.368;2023-03-16T06:17:23;98678.38;;;4.85;77.38
44148;BME280;29810;55.848;37.368;2023-03-16T06:20:25;98683.84;;;4.71;77.90
44148;BME280;29810;55.848;37.368;2023-03-16T06:23:27;98674.25;;;4.76;78.17
44148;BME280;29810;55.848;37.368;2023-03-16T06:26:30;98680.25;;;4.77;78.46
44148;BME280;29810;55.848;37.368;2023-03-16T06:29:32;98687.97;;;4.80;78.39
44148;BME280;29810;55.848;37.368;2023-03-16T06:32:37;98699.09;;;4.84;78.69
44148;BME280;29810;55.848;37.368;2023-03-16T06:35:39;98698.25;;;4.81;78.82
44148;BME280;29810;55.848;37.368;2023-03-16T06:38:43;98700.06;;;4.78;78.95
44148;BME280;29810;55.848;37.368;2023-03-16T06:41:45;98704.41;;;4.76;79.10
44148;BME280;29810;55.848;37.368;2023-03-16T06:44:47;98697.59;;;4.72;79.54
44148;BME280;29810;55.848;37.368;2023-03-16T06:47:49;98703.53;;;4.75;79.78
44148;BME280;29810;55.848;37.368;2023-03-16T06:50:51;98703.50;;;4.77;79.73
44148;BME280;29810;55.848;37.368;2023-03-16T06:53:53;98702.63;;;4.78;80.14
44148;BME280;29810;55.848;37.368;2023-03-16T06:56:55;98701.72;;;4.80;80.17
44148;BME280;29810;55.848;37.368;2023-03-16T06:59:57;98706.16;;;4.74;79.99
44148;BME280;29810;55.848;37.368;2023-03-16T07:03:00;98713.78;;;4.80;80.19
44148;BME280;29810;55.848;37.368;2023-03-16T07:06:03;98717.19;;;4.82;80.15
44148;BME280;29810;55.848;37.368;2023-03-16T07:09:05;98712.63;;;4.93;80.51
44148;BME280;29810;55.848;37.368;2023-03-16T07:12:09;98718.59;;;4.97;80.27
44148;BME280;29810;55.848;37.368;2023-03-16T07:15:12;98715.88;;;5.02;80.36
44148;BME280;29810;55.848;37.368;2023-03-16T07:18:14;98710.72;;;5.03;80.17
44148;BME280;29810;55.848;37.368;2023-03-16T07:21:17;98712.37;;;5.06;80.22
44148;BME280;29810;55.848;37.368;2023-03-16T07:24:19;98711.44;;;5.10;80.04
44148;BME280;29810;55.848;37.368;2023-03-16T07:27:21;98705.03;;;5.25;79.58
44148;BME280;29810;55.848;37.368;2023-03-16T07:30:25;98706.56;;;5.34;79.02
44148;BME280;29810;55.848;37.368;2023-03-16T07:33:26;98701.09;;;5.46;78.96
44148;BME280;29810;55.848;37.368;2023-03-16T07:36:29;98689.69;;;5.55;78.29
44148;BME280;29810;55.848;37.368;2023-03-16T07:39:31;98688.44;;;5.70;78.04
44148;BME280;29810;55.848;37.368;2023-03-16T07:42:34;98695.94;;;5.80;77.33
44148;BME280;29810;55.848;37.368;2023-03-16T07:45:39;98691.53;;;5.84;76.90
44148;BME280;29810;55.848;37.368;2023-03-16T07:48:44;98695.00;;;5.83;76.75
44148;BME280;29810;55.848;37.368;2023-03-16T07:51:45;98688.03;;;5.85;76.48
44148;BME280;29810;55.848;37.368;2023-03-16T07:54:49;98681.16;;;5.86;76.31
44148;BME280;29810;55.848;37.368;2023-03-16T07:57:52;98678.41;;;5.90;76.03
44148;BME280;29810;55.848;37.368;2023-03-16T08:00:58;98673.06;;;5.98;75.81
44148;BME280;29810;55.848;37.368;2023-03-16T08:04:02;98685.75;;;6.07;75.69
44148;BME280;29810;55.848;37.368;2023-03-16T08:07:04;98695.13;;;6.11;75.24
44148;BME280;29810;55.848;37.368;2023-03-16T08:10:08;98694.25;;;6.12;75.07
44148;BME280;29810;55.848;37.368;2023-03-16T08:13:11;98696.31;;;6.00;75.17
44148;BME280;29810;55.848;37.368;2023-03-16T08:16:15;98691.09;;;6.03;75.28
44148;BME280;29810;55.848;37.368;2023-03-16T08:19:17;98694.41;;;6.06;74.96
44148;BME280;29810;55.848;37.368;2023-03-16T08:22:22;98704.78;;;6.06;74.55
44148;BME280;29810;55.848;37.368;2023-03-16T08:25:24;98703.09;;;6.04;74.63
44148;BME280;29810;55.848;37.368;2023-03-16T08:28:27;98692.91;;;5.97;74.60
44148;BME280;29810;55.848;37.368;2023-03-16T08:31:30;98701.50;;;6.00;74.50
44148;BME280;29810;55.848;37.368;2023-03-16T08:34:36;98688.53;;;6.01;74.30
44148;BME280;29810;55.848;37.368;2023-03-16T08:37:40;98685.97;;;6.00;74.16
44148;BME280;29810;55.848;37.368;2023-03-16T08:40:42;98679.03;;;6.02;74.24
44148;BME280;29810;55.848;37.368;2023-03-16T08:43:49;98686.75;;;6.03;74.07
44148;BME280;29810;55.848;37.368;2023-03-16T08:46:51;98684.97;;;6.05;73.84
44148;BME280;29810;55.848;37.368;2023-03-16T08:49:53;98681.87;;;5.91;73.79
44148;BME280;29810;55.848;37.368;2023-03-16T08:52:55;98699.22;;;5.87;73.89
44148;BME280;29810;55.848;37.368;2023-03-16T08:56:03;98704.69;;;5.75;74.09
44148;BME280;29810;55.848;37.368;2023-03-16T08:59:05;98711.19;;;5.55;74.93
44148;BME280;29810;55.848;37.368;2023-03-16T09:02:11;98711.19;;;5.57;75.07
44148;BME280;29810;55.848;37.368;2023-03-16T09:05:14;98705.75;;;5.68;75.46
44148;BME280;29810;55.848;37.368;2023-03-16T09:08:16;98674.22;;;5.53;75.27
44148;BME280;29810;55.848;37.368;2023-03-16T09:11:19;98703.19;;;5.66;75.39
44148;BME280;29810;55.848;37.368;2023-03-16T09:14:21;98712.53;;;5.72;75.62
44148;BME280;29810;55.848;37.368;2023-03-16T09:17:23;98703.56;;;5.85;75.70
44148;BME280;29810;55.848;37.368;2023-03-16T09:20:25;98708.69;;;5.88;75.86
44148;BME280;29810;55.848;37.368;2023-03-16T09:23:30;98709.44;;;5.92;76.18
44148;BME280;29810;55.848;37.368;2023-03-16T09:26:31;98692.91;;;5.97;76.05
44148;BME280;29810;55.848;37.368;2023-03-16T09:29:33;98700.41;;;6.08;76.04
44148;BME280;29810;55.848;37.368;2023-03-16T09:32:36;98705.00;;;5.99;75.87
44148;BME280;29810;55.848;37.368;2023-03-16T09:35:38;98698.47;;;5.82;76.31
44148;BME280;29810;55.848;37.368;2023-03-16T09:38:40;98691.53;;;5.84;76.42
44148;BME280;29810;55.848;37.368;2023-03-16T09:41:52;98695.41;;;5.68;76.60
44148;BME280;29810;55.848;37.368;2023-03-16T09:45:58;98691.28;;;5.59;77.91
44148;BME280;29810;55.848;37.368;2023-03-16T09:48:40;98692.47;;;5.80;78.08
44148;BME280;29810;55.848;37.368;2023-03-16T09:52:23;98688.66;;;5.62;76.90
44148;BME280;29810;55.848;37.368;2023-03-16T09:55:29;98704.09;;;5.65;77.97
44148;BME280;29810;55.848;37.368;2023-03-16T09:58:31;98717.50;;;5.45;77.52
44148;BME280;29810;55.848;37.368;2023-03-16T10:01:46;98708.19;;;5.38;78.54
44148;BME280;29810;55.848;37.368;2023-03-16T10:05:08;98720.00;;;5.48;79.77
44148;BME280;29810;55.848;37.368;2023-03-16T10:08:15;98719.38;;;5.38;80.62
44148;BME280;29810;55.848;37.368;2023-03-16T10:11:22;98728.25;;;5.26;80.56
44148;BME280;29810;55.848;37.368;2023-03-16T10:14:43;98721.44;;;5.24;79.82
44148;BME280;29810;55.848;37.368;2023-03-16T10:17:58;98718.41;;;5.44;80.32
44148;BME280;29810;55.848;37.368;2023-03-16T10:21:01;98710.47;;;5.50;79.82
44148;BME280;29810;55.848;37.368;2023-03-16T10:24:54;98713.78;;;5.55;78.24
44148;BME280;29810;55.848;37.368;2023-03-16T10:27:33;98718.31;;;5.47;78.96
44148;BME280;29810;55.848;37.368;2023-03-16T10:30:36;98725.78;;;5.59;78.08
44148;BME280;29810;55.848;37.368;2023-03-16T10:33:39;98726.13;;;5.80;77.41
44148;BME280;29810;55.848;37.368;2023-03-16T10:36:42;98717.50;;;5.45;78.04
44148;BME280;29810;55.848;37.368;2023-03-16T10:39:47;98715.91;;;5.39;78.28
44148;BME280;29810;55.848;37.368;2023-03-16T10:42:49;98722.59;;;5.48;78.17
44148;BME280;29810;55.848;37.368;2023-03-16T10:45:51;98726.94;;;5.46;77.98
44148;BME280;29810;55.848;37.368;2023-03-16T10:51:57;98722.75;;;5.42;77.80
44148;BME280;29810;55.848;37.368;2023-03-16T10:55:06;98726.88;;;5.49;77.74
44148;BME280;29810;55.848;37.368;2023-03-16T10:58:22;98724.53;;;5.38;77.97
44148;BME280;29810;55.848;37.368;2023-03-16T11:01:27;98729.88;;;5.32;79.08
44148;BME280;29810;55.848;37.368;2023-03-16T11:04:32;98732.06;;;5.11;79.01
44148;BME280;29810;55.848;37.368;2023-03-16T11:07:34;98728.13;;;4.93;79.99
44148;BME280;29810;55.848;37.368;2023-03-16T11:10:46;98728.25;;;4.87;80.11
44148;BME280;29810;55.848;37.368;2023-03-16T11:14:01;98722.06;;;4.96;80.94
44148;BME280;29810;55.848;37.368;2023-03-16T11:17:07;98735.25;;;4.82;81.14
44148;BME280;29810;55.848;37.368;2023-03-16T11:20:20;98735.59;;;4.67;81.29
44148;BME280;29810;55.848;37.368;2023-03-16T11:23:32;98731.25;;;4.69;81.71
44148;BME280;29810;55.848;37.368;2023-03-16T11:26:37;98734.13;;;4.53;82.44
44148;BME280;29810;55.848;37.368;2023-03-16T11:29:49;98729.66;;;4.63;82.29
44148;BME280;29810;55.848;37.368;2023-03-16T11:32:56;98726.19;;;4.62;82.99
44148;BME280;29810;55.848;37.368;2023-03-16T11:36:25;98738.22;;;4.63;82.44
44148;BME280;29810;55.848;37.368;2023-03-16T11:46:29;98743.81;;;4.43;84.22
44148;BME280;29810;55.848;37.368;2023-03-16T11:49:49;98750.06;;;4.31;84.80
44148;BME280;29810;55.848;37.368;2023-03-16T11:53:17;98746.75;;;4.23;85.44
44148;BME280;29810;55.848;37.368;2023-03-16T12:03:34;98757.41;;;4.05;86.12
44148;BME280;29810;55.848;37.368;2023-03-16T12:10:24;98771.75;;;3.70;88.86
44148;BME280;29810;55.848;37.368;2023-03-16T12:17:03;98778.56;;;3.74;91.00
44148;BME280;29810;55.848;37.368;2023-03-16T12:20:15;98780.41;;;3.65;90.74
44148;BME280;29810;55.848;37.368;2023-03-16T12:23:31;98774.31;;;3.70;90.53
44148;BME280;29810;55.848;37.368;2023-03-16T12:26:39;98772.59;;;3.70;91.76
44148;BME280;29810;55.848;37.368;2023-03-16T12:33:42;98775.03;;;3.23;94.71
44148;BME280;29810;55.848;37.368;2023-03-16T12:50:08;98789.00;;;3.05;99.50
44148;BME280;29810;55.848;37.368;2023-03-16T12:53:28;98790.69;;;3.08;99.54
44148;BME280;29810;55.848;37.368;2023-03-16T12:56:46;98784.62;;;3.12;99.72
44148;BME280;29810;55.848;37.368;2023-03-16T12:59:54;98793.25;;;3.08;99.66
44148;BME280;29810;55.848;37.368;2023-03-16T13:02:58;98807.09;;;3.01;99.78
44148;BME280;29810;55.848;37.368;2023-03-16T13:06:01;98816.66;;;2.91;100.00
44148;BME280;29810;55.848;37.368;2023-03-16T13:09:05;98813.03;;;3.06;100.00
44148;BME280;29810;55.848;37.368;2023-03-16T13:12:07;98808.59;;;3.17;100.00
44148;BME280;29810;55.848;37.368;2023-03-16T13:24:35;98803.63;;;3.02;100.00
44148;BME280;29810;55.848;37.368;2023-03-16T13:27:38;98809.34;;;3.25;100.00
44148;BME280;29810;55.848;37.368;2023-03-16T13:30:46;98801.84;;;3.10;100.00
44148;BME280;29810;55.848;37.368;2023-03-16T13:33:52;98806.97;;;3.08;100.00
44148;BME280;29810;55.848;37.368;2023-03-16T13:37:15;98813.03;;;3.04;100.00
44148;BME280;29810;55.848;37.368;2023-03-16T13:40:23;98808.72;;;3.08;100.00
44148;BME280;29810;55.848;37.368;2023-03-16T13:43:28;98810.63;;;2.92;100.00
44148;BME280;29810;55.848;37.368;2023-03-16T13:46:42;98809.84;;;2.87;100.00
44148;BME280;29810;55.848;37.368;2023-03-16T13:49:53;98806.53;;;2.75;100.00
44148;BME280;29810;55.848;37.368;2023-03-16T13:53:42;98790.47;;;2.53;100.00
44148;BME280;29810;55.848;37.368;2023-03-16T13:56:24;98801.56;;;2.61;100.00
44148;BME280;29810;55.848;37.368;2023-03-16T13:59:27;98805.00;;;2.60;100.00
44148;BME280;29810;55.848;37.368;2023-03-16T14:02:39;98798.13;;;2.59;100.00
44148;BME280;29810;55.848;37.368;2023-03-16T14:05:47;98803.22;;;2.67;100.00
44148;BME280;29810;55.848;37.368;2023-03-16T14:09:08;98813.59;;;2.59;100.00
44148;BME280;29810;55.848;37.368;2023-03-16T14:12:17;98814.50;;;2.52;100.00
44148;BME280;29810;55.848;37.368;2023-03-16T14:15:29;98816.12;;;2.62;100.00
44148;BME280;29810;55.848;37.368;2023-03-16T14:18:36;98788.84;;;2.46;100.00
44148;BME280;29810;55.848;37.368;2023-03-16T14:21:43;98811.72;;;2.74;100.00
44148;BME280;29810;55.848;37.368;2023-03-16T14:24:50;98809.25;;;2.64;100.00
44148;BME280;29810;55.848;37.368;2023-03-16T14:28:24;98806.63;;;2.68;100.00
44148;BME280;29810;55.848;37.368;2023-03-16T14:31:38;98793.22;;;2.39;100.00
44148;BME280;29810;55.848;37.368;2023-03-16T14:34:41;98805.09;;;2.49;100.00
44148;BME280;29810;55.848;37.368;2023-03-16T14:37:43;98822.28;;;2.49;100.00
44148;BME280;29810;55.848;37.368;2023-03-16T14:40:53;98824.03;;;2.44;100.00
44148;BME280;29810;55.848;37.368;2023-03-16T14:44:01;98819.00;;;2.33;100.00
44148;BME280;29810;55.848;37.368;2023-03-16T14:47:05;98818.25;;;2.20;100.00
44148;BME280;29810;55.848;37.368;2023-03-16T14:50:22;98832.06;;;2.10;100.00
44148;BME280;29810;55.848;37.368;2023-03-16T14:53:28;98837.25;;;2.04;100.00
44148;BME280;29810;55.848;37.368;2023-03-16T14:56:35;98848.44;;;1.99;100.00
44148;BME280;29810;55.848;37.368;2023-03-16T14:59:51;98846.75;;;1.95;100.00
44148;BME280;29810;55.848;37.368;2023-03-16T15:07:34;98796.41;;;1.70;100.00
44148;BME280;29810;55.848;37.368;2023-03-16T15:10:36;98868.94;;;2.12;100.00
44148;BME280;29810;55.848;37.368;2023-03-16T15:13:53;98863.78;;;2.09;100.00
44148;BME280;29810;55.848;37.368;2023-03-16T15:17:42;98862.09;;;2.08;100.00
44148;BME280;29810;55.848;37.368;2023-03-16T15:20:47;98865.53;;;2.08;100.00
44148;BME280;29810;55.848;37.368;2023-03-16T15:23:52;98875.84;;;2.05;100.00
44148;BME280;29810;55.848;37.368;2023-03-16T15:26:54;98874.19;;;1.93;100.00
44148;BME280;29810;55.848;37.368;2023-03-16T15:29:56;98881.88;;;1.99;100.00
44148;BME280;29810;55.848;37.368;2023-03-16T15:32:58;98882.81;;;1.88;100.00
44148;BME280;29810;55.848;37.368;2023-03-16T15:36:01;98887.13;;;1.87;100.00
44148;BME280;29810;55.848;37.368;2023-03-16T15:39:20;98891.41;;;1.84;100.00
44148;BME280;29810;55.848;37.368;2023-03-16T15:42:24;98887.97;;;1.88;100.00
44148;BME280;29810;55.848;37.368;2023-03-16T15:45:27;98893.13;;;1.86;100.00
44148;BME280;29810;55.848;37.368;2023-03-16T15:48:30;98901.69;;;1.84;100.00
44148;BME280;29810;55.848;37.368;2023-03-16T15:51:32;98903.41;;;1.81;100.00
44148;BME280;29810;55.848;37.368;2023-03-16T15:54:34;98913.66;;;1.89;100.00
44148;BME280;29810;55.848;37.368;2023-03-16T15:57:36;98900.84;;;1.81;100.00
44148;BME280;29810;55.848;37.368;2023-03-16T16:00:42;98913.72;;;1.83;100.00
44148;BME280;29810;55.848;37.368;2023-03-16T16:03:44;98914.50;;;1.93;100.00
44148;BME280;29810;55.848;37.368;2023-03-16T16:06:47;98921.38;;;1.89;100.00
44148;BME280;29810;55.848;37.368;2023-03-16T16:09:49;98931.66;;;1.92;100.00
44148;BME280;29810;55.848;37.368;2023-03-16T16:12:53;98936.78;;;1.92;100.00
44148;BME280;29810;55.848;37.368;2023-03-16T16:15:56;98940.31;;;1.71;100.00
44148;BME280;29810;55.848;37.368;2023-03-16T16:18:58;98962.53;;;1.86;100.00
44148;BME280;29810;55.848;37.368;2023-03-16T16:22:00;98954.03;;;1.72;100.00
44148;BME280;29810;55.848;37.368;2023-03-16T16:25:03;98954.88;;;1.75;100.00
44148;BME280;29810;55.848;37.368;2023-03-16T16:28:21;98961.69;;;1.82;100.00
44148;BME280;29810;55.848;37.368;2023-03-16T16:31:23;98983.12;;;1.80;100.00
44148;BME280;29810;55.848;37.368;2023-03-16T16:34:26;98973.72;;;1.76;100.00
44148;BME280;29810;55.848;37.368;2023-03-16T16:37:31;98965.22;;;1.61;100.00
44148;BME280;29810;55.848;37.368;2023-03-16T16:40:50;98981.50;;;1.63;100.00
44148;BME280;29810;55.848;37.368;2023-03-16T16:43:52;98985.75;;;1.68;100.00
44148;BME280;29810;55.848;37.368;2023-03-16T16:46:55;98987.44;;;1.73;100.00
44148;BME280;29810;55.848;37.368;2023-03-16T16:49:58;99010.59;;;1.65;100.00
44148;BME280;29810;55.848;37.368;2023-03-16T16:52:59;99002.97;;;1.53;100.00
44148;BME280;29810;55.848;37.368;2023-03-16T16:56:01;99008.97;;;1.46;100.00
44148;BME280;29810;55.848;37.368;2023-03-16T16:59:19;99014.12;;;1.49;100.00
44148;BME280;29810;55.848;37.368;2023-03-16T17:02:30;99014.09;;;1.46;100.00
44148;BME280;29810;55.848;37.368;2023-03-16T17:05:32;99016.69;;;1.43;100.00
44148;BME280;29810;55.848;37.368;2023-03-16T17:08:34;99014.12;;;1.43;100.00
44148;BME280;29810;55.848;37.368;2023-03-16T17:11:36;99015.84;;;1.38;100.00
44148;BME280;29810;55.848;37.368;2023-03-16T17:14:37;99015.00;;;1.40;100.00
44148;BME280;29810;55.848;37.368;2023-03-16T17:17:40;99009.00;;;1.30;100.00